sensor_id;sensor_type;location;lat;lon;timestamp;P1;durP1;ratioP1;P2;durP2;ratioP2
24901;SDS011;31328;51.402;0.016;2022-07-23T00:01:18;1.95;;;1.10;;
24901;SDS011;31328;51.402;0.016;2022-07-23T00:03:44;2.22;;;1.55;;
24901;SDS011;31328;51.402;0.016;2022-07-23T00:06:10;2.95;;;1.60;;
24901;SDS011;31328;51.402;0.016;2022-07-23T00:08:37;4.07;;;1.35;;
24901;SDS011;31328;51.402;0.016;2022-07-23T00:11:03;2.97;;;1.70;;
24901;SDS011;31328;51.402;0.016;2022-07-23T00:13:30;4.57;;;1.55;;
24901;SDS011;31328;51.402;0.016;2022-07-23T00:15:56;5.25;;;1.52;;
24901;SDS011;31328;51.402;0.016;2022-07-23T00:18:23;2.45;;;1.60;;
24901;SDS011;31328;51.402;0.016;2022-07-23T00:20:50;1.95;;;1.40;;
24901;SDS011;31328;51.402;0.016;2022-07-23T00:23:17;4.82;;;1.58;;
24901;SDS011;31328;51.402;0.016;2022-07-23T00:25:43;1.88;;;1.20;;
24901;SDS011;31328;51.402;0.016;2022-07-23T00:28:10;2.75;;;1.50;;
24901;SDS011;31328;51.402;0.016;2022-07-23T00:30:37;2.20;;;1.70;;
24901;SDS011;31328;51.402;0.016;2022-07-23T00:33:05;8.93;;;2.40;;
24901;SDS011;31328;51.402;0.016;2022-07-23T00:35:34;2.92;;;1.98;;
24901;SDS011;31328;51.402;0.016;2022-07-23T00:38:03;2.40;;;1.80;;
24901;SDS011;31328;51.402;0.016;2022-07-23T00:40:31;2.85;;;1.58;;
24901;SDS011;31328;51.402;0.016;2022-07-23T00:42:57;2.75;;;1.63;;
24901;SDS011;31328;51.402;0.016;2022-07-23T00:45:25;2.38;;;1.25;;
24901;SDS011;31328;51.402;0.016;2022-07-23T00:47:52;3.28;;;1.92;;
24901;SDS011;31328;51.402;0.016;2022-07-23T00:50:19;1.92;;;1.48;;
24901;SDS011;31328;51.402;0.016;2022-07-23T00:52:45;2.35;;;1.30;;
24901;SDS011;31328;51.402;0.016;2022-07-23T00:55:12;2.50;;;1.20;;
24901;SDS011;31328;51.402;0.016;2022-07-23T00:57:39;3.17;;;1.30;;
24901;SDS011;31328;51.402;0.016;2022-07-23T01:00:08;2.10;;;1.30;;
24901;SDS011;31328;51.402;0.016;2022-07-23T01:02:38;3.53;;;1.95;;
24901;SDS011;31328;51.402;0.016;2022-07-23T01:05:05;2.60;;;2.00;;
24901;SDS011;31328;51.402;0.016;2022-07-23T01:07:33;3.50;;;1.90;;
24901;SDS011;31328;51.402;0.016;2022-07-23T01:10:00;3.88;;;1.58;;
24901;SDS011;31328;51.402;0.016;2022-07-23T01:12:27;2.60;;;1.60;;
24901;SDS011;31328;51.402;0.016;2022-07-23T01:14:58;2.35;;;1.20;;
24901;SDS011;31328;51.402;0.016;2022-07-23T01:17:27;3.63;;;1.23;;
24901;SDS011;31328;51.402;0.016;2022-07-23T01:19:54;1.20;;;1.10;;
24901;SDS011;31328;51.402;0.016;2022-07-23T01:22:20;3.13;;;1.27;;
24901;SDS011;31328;51.402;0.016;2022-07-23T01:24:47;3.05;;;1.35;;
24901;SDS011;31328;51.402;0.016;2022-07-23T01:27:16;2.30;;;1.60;;
24901;SDS011;31328;51.402;0.016;2022-07-23T01:29:46;3.40;;;1.85;;
24901;SDS011;31328;51.402;0.016;2022-07-23T01:32:17;3.60;;;1.63;;
24901;SDS011;31328;51.402;0.016;2022-07-23T01:34:44;2.53;;;1.35;;
24901;SDS011;31328;51.402;0.016;2022-07-23T01:37:11;4.10;;;1.33;;
24901;SDS011;31328;51.402;0.016;2022-07-23T01:39:37;3.03;;;1.50;;
24901;SDS011;31328;51.402;0.016;2022-07-23T01:42:04;4.60;;;1.58;;
24901;SDS011;31328;51.402;0.016;2022-07-23T01:44:32;2.95;;;1.67;;
24901;SDS011;31328;51.402;0.016;2022-07-23T01:46:59;3.38;;;1.60;;
24901;SDS011;31328;51.402;0.016;2022-07-23T01:49:26;2.42;;;1.50;;
24901;SDS011;31328;51.402;0.016;2022-07-23T01:54:41;3.15;;;1.70;;
24901;SDS011;31328;51.402;0.016;2022-07-23T01:57:08;3.17;;;2.03;;
24901;SDS011;31328;51.402;0.016;2022-07-23T01:59:35;1.63;;;1.27;;
24901;SDS011;31328;51.402;0.016;2022-07-23T02:02:02;3.55;;;1.77;;
24901;SDS011;31328;51.402;0.016;2022-07-23T02:04:30;3.08;;;1.65;;
24901;SDS011;31328;51.402;0.016;2022-07-23T02:06:59;1.80;;;1.27;;
24901;SDS011;31328;51.402;0.016;2022-07-23T02:09:26;4.18;;;1.40;;
24901;SDS011;31328;51.402;0.016;2022-07-23T02:11:53;2.13;;;1.23;;
24901;SDS011;31328;51.402;0.016;2022-07-23T02:14:19;3.20;;;1.67;;
24901;SDS011;31328;51.402;0.016;2022-07-23T02:16:46;2.65;;;1.50;;
24901;SDS011;31328;51.402;0.016;2022-07-23T02:19:14;4.05;;;1.73;;
24901;SDS011;31328;51.402;0.016;2022-07-23T02:21:41;2.03;;;1.40;;
24901;SDS011;31328;51.402;0.016;2022-07-23T02:24:07;2.67;;;1.25;;
24901;SDS011;31328;51.402;0.016;2022-07-23T02:26:34;1.75;;;1.33;;
24901;SDS011;31328;51.402;0.016;2022-07-23T02:29:03;3.75;;;1.98;;
24901;SDS011;31328;51.402;0.016;2022-07-23T02:31:31;1.85;;;1.67;;
24901;SDS011;31328;51.402;0.016;2022-07-23T02:33:59;3.97;;;1.48;;
24901;SDS011;31328;51.402;0.016;2022-07-23T02:36:26;1.95;;;1.40;;
24901;SDS011;31328;51.402;0.016;2022-07-23T02:38:53;2.38;;;1.30;;
24901;SDS011;31328;51.402;0.016;2022-07-23T02:41:20;3.63;;;1.33;;
24901;SDS011;31328;51.402;0.016;2022-07-23T02:43:46;2.45;;;1.33;;
24901;SDS011;31328;51.402;0.016;2022-07-23T02:46:14;2.25;;;1.20;;
24901;SDS011;31328;51.402;0.016;2022-07-23T02:48:41;2.78;;;1.45;;
24901;SDS011;31328;51.402;0.016;2022-07-23T02:51:07;4.88;;;1.75;;
24901;SDS011;31328;51.402;0.016;2022-07-23T02:53:38;1.92;;;1.38;;
24901;SDS011;31328;51.402;0.016;2022-07-23T02:56:05;2.72;;;1.23;;
24901;SDS011;31328;51.402;0.016;2022-07-23T02:58:31;2.10;;;1.30;;
24901;SDS011;31328;51.402;0.016;2022-07-23T03:00:58;2.33;;;1.38;;
24901;SDS011;31328;51.402;0.016;2022-07-23T03:03:25;2.40;;;1.30;;
24901;SDS011;31328;51.402;0.016;2022-07-23T03:05:52;1.55;;;1.27;;
24901;SDS011;31328;51.402;0.016;2022-07-23T03:08:18;2.00;;;1.67;;
24901;SDS011;31328;51.402;0.016;2022-07-23T03:10:50;1.90;;;1.50;;
24901;SDS011;31328;51.402;0.016;2022-07-23T03:13:16;2.53;;;1.33;;
24901;SDS011;31328;51.402;0.016;2022-07-23T03:15:42;1.70;;;1.52;;
24901;SDS011;31328;51.402;0.016;2022-07-23T03:18:09;2.53;;;1.02;;
24901;SDS011;31328;51.402;0.016;2022-07-23T03:20:35;6.20;;;1.52;;
24901;SDS011;31328;51.402;0.016;2022-07-23T03:23:02;2.67;;;1.50;;
24901;SDS011;31328;51.402;0.016;2022-07-23T03:25:29;3.65;;;1.50;;
24901;SDS011;31328;51.402;0.016;2022-07-23T03:27:56;2.75;;;1.58;;
24901;SDS011;31328;51.402;0.016;2022-07-23T03:30:24;2.95;;;1.38;;
24901;SDS011;31328;51.402;0.016;2022-07-23T03:32:50;2.35;;;1.45;;
24901;SDS011;31328;51.402;0.016;2022-07-23T03:35:16;4.43;;;1.80;;
24901;SDS011;31328;51.402;0.016;2022-07-23T03:37:50;2.38;;;1.50;;
24901;SDS011;31328;51.402;0.016;2022-07-23T03:40:17;3.30;;;1.58;;
24901;SDS011;31328;51.402;0.016;2022-07-23T03:42:43;2.88;;;1.58;;
24901;SDS011;31328;51.402;0.016;2022-07-23T03:45:12;2.83;;;1.77;;
24901;SDS011;31328;51.402;0.016;2022-07-23T03:47:38;3.28;;;1.58;;
24901;SDS011;31328;51.402;0.016;2022-07-23T03:50:05;3.13;;;1.50;;
24901;SDS011;31328;51.402;0.016;2022-07-23T03:52:32;3.97;;;1.65;;
24901;SDS011;31328;51.402;0.016;2022-07-23T03:54:58;3.15;;;1.67;;
24901;SDS011;31328;51.402;0.016;2022-07-23T03:57:25;4.32;;;1.50;;
24901;SDS011;31328;51.402;0.016;2022-07-23T03:59:52;3.47;;;1.77;;
24901;SDS011;31328;51.402;0.016;2022-07-23T04:02:19;3.63;;;1.67;;
24901;SDS011;31328;51.402;0.016;2022-07-23T04:04:45;3.17;;;1.65;;
24901;SDS011;31328;51.402;0.016;2022-07-23T04:07:12;3.13;;;1.73;;
24901;SDS011;31328;51.402;0.016;2022-07-23T04:09:39;2.90;;;1.60;;
24901;SDS011;31328;51.402;0.016;2022-07-23T04:12:07;4.03;;;1.90;;
24901;SDS011;31328;51.402;0.016;2022-07-23T04:14:34;2.78;;;1.85;;
24901;SDS011;31328;51.402;0.016;2022-07-23T04:17:00;5.07;;;1.92;;
24901;SDS011;31328;51.402;0.016;2022-07-23T04:19:27;4.13;;;2.20;;
24901;SDS011;31328;51.402;0.016;2022-07-23T04:22:01;2.70;;;1.92;;
24901;SDS011;31328;51.402;0.016;2022-07-23T04:24:28;2.00;;;1.50;;
24901;SDS011;31328;51.402;0.016;2022-07-23T04:26:54;2.58;;;1.60;;
24901;SDS011;31328;51.402;0.016;2022-07-23T04:29:21;2.13;;;1.67;;
24901;SDS011;31328;51.402;0.016;2022-07-23T04:31:48;2.97;;;1.90;;
24901;SDS011;31328;51.402;0.016;2022-07-23T04:34:17;2.55;;;1.40;;
24901;SDS011;31328;51.402;0.016;2022-07-23T04:36:44;2.42;;;1.75;;
24901;SDS011;31328;51.402;0.016;2022-07-23T04:39:11;3.55;;;1.75;;
24901;SDS011;31328;51.402;0.016;2022-07-23T04:41:37;3.50;;;1.42;;
24901;SDS011;31328;51.402;0.016;2022-07-23T04:44:03;2.25;;;1.60;;
24901;SDS011;31328;51.402;0.016;2022-07-23T04:46:31;3.22;;;1.75;;
24901;SDS011;31328;51.402;0.016;2022-07-23T04:48:57;3.83;;;1.85;;
24901;SDS011;31328;51.402;0.016;2022-07-23T04:51:24;2.85;;;1.80;;
24901;SDS011;31328;51.402;0.016;2022-07-23T04:53:50;3.67;;;1.55;;
24901;SDS011;31328;51.402;0.016;2022-07-23T04:56:17;1.77;;;1.40;;
24901;SDS011;31328;51.402;0.016;2022-07-23T04:58:43;3.15;;;1.60;;
24901;SDS011;31328;51.402;0.016;2022-07-23T05:01:10;3.78;;;2.00;;
24901;SDS011;31328;51.402;0.016;2022-07-23T05:03:37;4.78;;;1.80;;
24901;SDS011;31328;51.402;0.016;2022-07-23T05:06:04;4.90;;;2.28;;
24901;SDS011;31328;51.402;0.016;2022-07-23T05:08:31;3.42;;;2.17;;
24901;SDS011;31328;51.402;0.016;2022-07-23T05:10:59;5.00;;;2.20;;
24901;SDS011;31328;51.402;0.016;2022-07-23T05:13:27;2.75;;;1.80;;
24901;SDS011;31328;51.402;0.016;2022-07-23T05:15:54;3.30;;;2.03;;
24901;SDS011;31328;51.402;0.016;2022-07-23T05:18:21;5.40;;;2.63;;
24901;SDS011;31328;51.402;0.016;2022-07-23T05:20:48;4.70;;;1.77;;
24901;SDS011;31328;51.402;0.016;2022-07-23T05:23:18;8.90;;;2.45;;
24901;SDS011;31328;51.402;0.016;2022-07-23T05:25:45;3.58;;;2.15;;
24901;SDS011;31328;51.402;0.016;2022-07-23T05:28:12;3.20;;;2.25;;
24901;SDS011;31328;51.402;0.016;2022-07-23T05:30:39;2.95;;;2.00;;
24901;SDS011;31328;51.402;0.016;2022-07-23T05:33:08;4.10;;;2.17;;
24901;SDS011;31328;51.402;0.016;2022-07-23T05:35:36;4.65;;;1.80;;
24901;SDS011;31328;51.402;0.016;2022-07-23T05:38:22;3.92;;;2.33;;
24901;SDS011;31328;51.402;0.016;2022-07-23T05:40:49;4.30;;;2.10;;
24901;SDS011;31328;51.402;0.016;2022-07-23T05:43:17;3.88;;;2.10;;
24901;SDS011;31328;51.402;0.016;2022-07-23T05:45:43;3.60;;;2.13;;
24901;SDS011;31328;51.402;0.016;2022-07-23T05:48:10;4.53;;;2.20;;
24901;SDS011;31328;51.402;0.016;2022-07-23T05:50:46;6.38;;;2.72;;
24901;SDS011;31328;51.402;0.016;2022-07-23T05:53:23;3.85;;;2.08;;
24901;SDS011;31328;51.402;0.016;2022-07-23T05:55:59;4.07;;;1.98;;
24901;SDS011;31328;51.402;0.016;2022-07-23T05:58:26;3.42;;;2.15;;
24901;SDS011;31328;51.402;0.016;2022-07-23T06:00:53;3.95;;;2.05;;
24901;SDS011;31328;51.402;0.016;2022-07-23T06:03:19;4.13;;;2.47;;
24901;SDS011;31328;51.402;0.016;2022-07-23T06:05:46;2.92;;;1.95;;
24901;SDS011;31328;51.402;0.016;2022-07-23T06:08:12;4.22;;;2.20;;
24901;SDS011;31328;51.402;0.016;2022-07-23T06:10:39;3.13;;;2.20;;
24901;SDS011;31328;51.402;0.016;2022-07-23T06:13:05;3.45;;;2.28;;
24901;SDS011;31328;51.402;0.016;2022-07-23T06:15:32;2.42;;;1.85;;
24901;SDS011;31328;51.402;0.016;2022-07-23T06:17:58;3.13;;;1.90;;
24901;SDS011;31328;51.402;0.016;2022-07-23T06:20:25;5.63;;;2.50;;
24901;SDS011;31328;51.402;0.016;2022-07-23T06:22:51;3.03;;;1.90;;
24901;SDS011;31328;51.402;0.016;2022-07-23T06:25:18;3.55;;;2.42;;
24901;SDS011;31328;51.402;0.016;2022-07-23T06:27:46;3.97;;;2.28;;
24901;SDS011;31328;51.402;0.016;2022-07-23T06:30:13;3.72;;;2.08;;
24901;SDS011;31328;51.402;0.016;2022-07-23T06:32:41;4.15;;;2.20;;
24901;SDS011;31328;51.402;0.016;2022-07-23T06:35:08;5.97;;;2.13;;
24901;SDS011;31328;51.402;0.016;2022-07-23T06:37:34;3.80;;;2.25;;
24901;SDS011;31328;51.402;0.016;2022-07-23T06:40:01;3.70;;;2.22;;
24901;SDS011;31328;51.402;0.016;2022-07-23T06:42:28;4.85;;;2.50;;
24901;SDS011;31328;51.402;0.016;2022-07-23T06:44:57;4.88;;;2.50;;
24901;SDS011;31328;51.402;0.016;2022-07-23T06:47:24;6.50;;;2.22;;
24901;SDS011;31328;51.402;0.016;2022-07-23T06:49:51;3.38;;;2.50;;
24901;SDS011;31328;51.402;0.016;2022-07-23T06:52:17;4.80;;;2.85;;
24901;SDS011;31328;51.402;0.016;2022-07-23T06:54:43;3.50;;;2.47;;
24901;SDS011;31328;51.402;0.016;2022-07-23T06:57:10;6.00;;;2.63;;
24901;SDS011;31328;51.402;0.016;2022-07-23T06:59:36;3.83;;;2.17;;
24901;SDS011;31328;51.402;0.016;2022-07-23T07:02:09;4.20;;;2.28;;
24901;SDS011;31328;51.402;0.016;2022-07-23T07:04:35;4.25;;;2.92;;
24901;SDS011;31328;51.402;0.016;2022-07-23T07:07:02;4.03;;;2.05;;
24901;SDS011;31328;51.402;0.016;2022-07-23T07:09:28;5.07;;;2.72;;
24901;SDS011;31328;51.402;0.016;2022-07-23T07:11:55;2.97;;;1.90;;
24901;SDS011;31328;51.402;0.016;2022-07-23T07:14:22;4.72;;;2.70;;
24901;SDS011;31328;51.402;0.016;2022-07-23T07:16:48;3.30;;;1.98;;
24901;SDS011;31328;51.402;0.016;2022-07-23T07:19:15;5.85;;;2.20;;
24901;SDS011;31328;51.402;0.016;2022-07-23T07:21:42;5.53;;;2.38;;
24901;SDS011;31328;51.402;0.016;2022-07-23T07:24:09;4.28;;;2.60;;
24901;SDS011;31328;51.402;0.016;2022-07-23T07:26:35;3.70;;;2.30;;
24901;SDS011;31328;51.402;0.016;2022-07-23T07:29:04;2.63;;;2.10;;
24901;SDS011;31328;51.402;0.016;2022-07-23T07:31:31;6.07;;;2.60;;
24901;SDS011;31328;51.402;0.016;2022-07-23T07:34:00;2.80;;;2.42;;
24901;SDS011;31328;51.402;0.016;2022-07-23T07:36:30;4.38;;;2.33;;
24901;SDS011;31328;51.402;0.016;2022-07-23T07:38:56;3.80;;;2.25;;
24901;SDS011;31328;51.402;0.016;2022-07-23T07:41:23;5.05;;;2.13;;
24901;SDS011;31328;51.402;0.016;2022-07-23T07:43:50;3.42;;;2.10;;
24901;SDS011;31328;51.402;0.016;2022-07-23T07:46:16;3.85;;;1.85;;
24901;SDS011;31328;51.402;0.016;2022-07-23T07:48:43;3.42;;;2.03;;
24901;SDS011;31328;51.402;0.016;2022-07-23T07:51:09;3.95;;;2.03;;
24901;SDS011;31328;51.402;0.016;2022-07-23T07:53:36;2.35;;;1.65;;
24901;SDS011;31328;51.402;0.016;2022-07-23T07:56:02;4.18;;;2.60;;
24901;SDS011;31328;51.402;0.016;2022-07-23T07:58:28;4.50;;;2.35;;
24901;SDS011;31328;51.402;0.016;2022-07-23T08:00:55;4.50;;;2.78;;
24901;SDS011;31328;51.402;0.016;2022-07-23T08:03:21;2.72;;;1.70;;
24901;SDS011;31328;51.402;0.016;2022-07-23T08:05:47;4.55;;;2.03;;
24901;SDS011;31328;51.402;0.016;2022-07-23T08:08:14;4.53;;;2.08;;
24901;SDS011;31328;51.402;0.016;2022-07-23T08:10:41;4.15;;;1.92;;
24901;SDS011;31328;51.402;0.016;2022-07-23T08:13:11;2.75;;;1.98;;
24901;SDS011;31328;51.402;0.016;2022-07-23T08:15:40;4.85;;;1.92;;
24901;SDS011;31328;51.402;0.016;2022-07-23T08:18:06;3.67;;;1.83;;
24901;SDS011;31328;51.402;0.016;2022-07-23T08:20:33;3.38;;;1.70;;
24901;SDS011;31328;51.402;0.016;2022-07-23T08:23:03;2.97;;;1.80;;
24901;SDS011;31328;51.402;0.016;2022-07-23T08:25:32;2.63;;;2.00;;
24901;SDS011;31328;51.402;0.016;2022-07-23T08:28:00;6.68;;;2.00;;
24901;SDS011;31328;51.402;0.016;2022-07-23T08:30:28;2.70;;;1.95;;
24901;SDS011;31328;51.402;0.016;2022-07-23T08:33:00;2.58;;;1.80;;
24901;SDS011;31328;51.402;0.016;2022-07-23T08:35:37;2.85;;;1.60;;
24901;SDS011;31328;51.402;0.016;2022-07-23T08:38:05;2.45;;;1.75;;
24901;SDS011;31328;51.402;0.016;2022-07-23T08:40:34;4.20;;;1.60;;
24901;SDS011;31328;51.402;0.016;2022-07-23T08:43:04;3.15;;;1.50;;
24901;SDS011;31328;51.402;0.016;2022-07-23T08:45:35;2.05;;;1.58;;
24901;SDS011;31328;51.402;0.016;2022-07-23T08:48:06;3.35;;;1.55;;
24901;SDS011;31328;51.402;0.016;2022-07-23T08:50:35;2.55;;;1.63;;
24901;SDS011;31328;51.402;0.016;2022-07-23T08:53:03;5.05;;;1.90;;
24901;SDS011;31328;51.402;0.016;2022-07-23T08:55:32;2.35;;;1.92;;
24901;SDS011;31328;51.402;0.016;2022-07-23T08:57:58;2.92;;;1.73;;
24901;SDS011;31328;51.402;0.016;2022-07-23T09:00:24;2.55;;;1.67;;
24901;SDS011;31328;51.402;0.016;2022-07-23T09:02:51;2.03;;;1.20;;
24901;SDS011;31328;51.402;0.016;2022-07-23T09:05:19;3.65;;;1.80;;
24901;SDS011;31328;51.402;0.016;2022-07-23T09:10:36;3.83;;;2.30;;
24901;SDS011;31328;51.402;0.016;2022-07-23T09:16:04;2.75;;;1.40;;
24901;SDS011;31328;51.402;0.016;2022-07-23T09:18:38;2.58;;;1.75;;
24901;SDS011;31328;51.402;0.016;2022-07-23T09:23:39;4.47;;;2.13;;
24901;SDS011;31328;51.402;0.016;2022-07-23T09:26:18;2.80;;;1.92;;
24901;SDS011;31328;51.402;0.016;2022-07-23T09:34:13;2.92;;;1.13;;
24901;SDS011;31328;51.402;0.016;2022-07-23T09:36:39;2.28;;;1.20;;
24901;SDS011;31328;51.402;0.016;2022-07-23T09:39:06;3.72;;;1.52;;
24901;SDS011;31328;51.402;0.016;2022-07-23T09:41:34;2.55;;;1.63;;
24901;SDS011;31328;51.402;0.016;2022-07-23T09:44:07;2.17;;;1.17;;
24901;SDS011;31328;51.402;0.016;2022-07-23T09:46:42;1.42;;;1.30;;
24901;SDS011;31328;51.402;0.016;2022-07-23T09:49:11;3.38;;;1.42;;
24901;SDS011;31328;51.402;0.016;2022-07-23T09:51:57;2.30;;;1.55;;
24901;SDS011;31328;51.402;0.016;2022-07-23T09:54:32;3.85;;;1.20;;
24901;SDS011;31328;51.402;0.016;2022-07-23T09:57:08;3.15;;;1.42;;
24901;SDS011;31328;51.402;0.016;2022-07-23T09:59:38;2.05;;;1.10;;
24901;SDS011;31328;51.402;0.016;2022-07-23T10:02:06;1.90;;;0.95;;
24901;SDS011;31328;51.402;0.016;2022-07-23T10:04:49;1.40;;;1.08;;
24901;SDS011;31328;51.402;0.016;2022-07-23T10:07:47;2.42;;;1.23;;
24901;SDS011;31328;51.402;0.016;2022-07-23T10:10:35;1.63;;;1.30;;
24901;SDS011;31328;51.402;0.016;2022-07-23T10:13:20;2.63;;;1.05;;
24901;SDS011;31328;51.402;0.016;2022-07-23T10:15:53;2.50;;;1.20;;
24901;SDS011;31328;51.402;0.016;2022-07-23T10:18:19;2.05;;;1.08;;
24901;SDS011;31328;51.402;0.016;2022-07-23T10:20:47;1.70;;;1.38;;
24901;SDS011;31328;51.402;0.016;2022-07-23T10:23:16;3.58;;;1.35;;
24901;SDS011;31328;51.402;0.016;2022-07-23T10:26:12;2.15;;;1.40;;
24901;SDS011;31328;51.402;0.016;2022-07-23T10:37:07;2.53;;;1.27;;
24901;SDS011;31328;51.402;0.016;2022-07-23T10:40:08;3.75;;;0.90;;
24901;SDS011;31328;51.402;0.016;2022-07-23T10:42:43;1.65;;;1.00;;
24901;SDS011;31328;51.402;0.016;2022-07-23T10:48:15;1.60;;;0.85;;
24901;SDS011;31328;51.402;0.016;2022-07-23T10:50:42;1.33;;;0.80;;
24901;SDS011;31328;51.402;0.016;2022-07-23T10:53:10;2.25;;;1.10;;
24901;SDS011;31328;51.402;0.016;2022-07-23T10:55:40;1.05;;;0.93;;
24901;SDS011;31328;51.402;0.016;2022-07-23T10:58:09;5.20;;;1.20;;
24901;SDS011;31328;51.402;0.016;2022-07-23T11:00:36;1.13;;;0.80;;
24901;SDS011;31328;51.402;0.016;2022-07-23T11:03:27;1.95;;;0.70;;
24901;SDS011;31328;51.402;0.016;2022-07-23T11:05:57;2.42;;;1.00;;
24901;SDS011;31328;51.402;0.016;2022-07-23T11:08:24;1.75;;;0.70;;
24901;SDS011;31328;51.402;0.016;2022-07-23T11:10:52;2.75;;;1.15;;
24901;SDS011;31328;51.402;0.016;2022-07-23T11:16:30;1.95;;;0.68;;
24901;SDS011;31328;51.402;0.016;2022-07-23T11:27:08;1.48;;;0.70;;
24901;SDS011;31328;51.402;0.016;2022-07-23T11:34:38;1.38;;;0.90;;
24901;SDS011;31328;51.402;0.016;2022-07-23T11:37:07;3.47;;;1.10;;
24901;SDS011;31328;51.402;0.016;2022-07-23T11:39:36;1.00;;;0.80;;
24901;SDS011;31328;51.402;0.016;2022-07-23T11:42:04;1.55;;;1.00;;
24901;SDS011;31328;51.402;0.016;2022-07-23T11:44:33;0.80;;;0.80;;
24901;SDS011;31328;51.402;0.016;2022-07-23T11:47:02;1.75;;;0.80;;
24901;SDS011;31328;51.402;0.016;2022-07-23T11:49:36;1.70;;;1.15;;
24901;SDS011;31328;51.402;0.016;2022-07-23T11:52:09;3.38;;;1.00;;
24901;SDS011;31328;51.402;0.016;2022-07-23T11:54:36;1.92;;;0.82;;
24901;SDS011;31328;51.402;0.016;2022-07-23T11:57:18;0.73;;;0.63;;
24901;SDS011;31328;51.402;0.016;2022-07-23T11:59:47;1.02;;;0.70;;
24901;SDS011;31328;51.402;0.016;2022-07-23T12:02:17;1.65;;;1.20;;
24901;SDS011;31328;51.402;0.016;2022-07-23T12:04:46;1.35;;;0.70;;
24901;SDS011;31328;51.402;0.016;2022-07-23T12:09:55;1.08;;;0.82;;
24901;SDS011;31328;51.402;0.016;2022-07-23T12:12:23;1.20;;;1.08;;
24901;SDS011;31328;51.402;0.016;2022-07-23T12:14:59;1.52;;;1.20;;
24901;SDS011;31328;51.402;0.016;2022-07-23T12:17:29;0.70;;;0.70;;
24901;SDS011;31328;51.402;0.016;2022-07-23T12:19:57;1.48;;;0.82;;
24901;SDS011;31328;51.402;0.016;2022-07-23T12:22:24;1.75;;;0.70;;
24901;SDS011;31328;51.402;0.016;2022-07-23T12:25:00;1.33;;;0.60;;
24901;SDS011;31328;51.402;0.016;2022-07-23T12:27:30;1.05;;;0.63;;
24901;SDS011;31328;51.402;0.016;2022-07-23T12:29:56;1.88;;;0.70;;
24901;SDS011;31328;51.402;0.016;2022-07-23T12:32:27;1.98;;;0.70;;
24901;SDS011;31328;51.402;0.016;2022-07-23T12:35:04;1.08;;;0.70;;
24901;SDS011;31328;51.402;0.016;2022-07-23T12:37:34;1.70;;;0.80;;
24901;SDS011;31328;51.402;0.016;2022-07-23T12:42:58;1.88;;;0.75;;
24901;SDS011;31328;51.402;0.016;2022-07-23T12:45:27;1.55;;;0.80;;
24901;SDS011;31328;51.402;0.016;2022-07-23T12:48:06;1.52;;;0.70;;
24901;SDS011;31328;51.402;0.016;2022-07-23T12:53:06;1.10;;;0.90;;
24901;SDS011;31328;51.402;0.016;2022-07-23T12:55:36;1.42;;;0.68;;
24901;SDS011;31328;51.402;0.016;2022-07-23T12:58:08;1.55;;;0.90;;
24901;SDS011;31328;51.402;0.016;2022-07-23T13:00:49;2.00;;;1.00;;
24901;SDS011;31328;51.402;0.016;2022-07-23T13:05:48;1.77;;;0.88;;
24901;SDS011;31328;51.402;0.016;2022-07-23T13:08:14;1.02;;;0.60;;
24901;SDS011;31328;51.402;0.016;2022-07-23T13:10:41;0.80;;;0.68;;
24901;SDS011;31328;51.402;0.016;2022-07-23T13:13:10;0.75;;;0.68;;
24901;SDS011;31328;51.402;0.016;2022-07-23T13:15:36;1.52;;;0.73;;
24901;SDS011;31328;51.402;0.016;2022-07-23T13:18:03;1.17;;;0.70;;
24901;SDS011;31328;51.402;0.016;2022-07-23T13:20:31;1.15;;;0.68;;
24901;SDS011;31328;51.402;0.016;2022-07-23T13:22:58;1.27;;;0.60;;
24901;SDS011;31328;51.402;0.016;2022-07-23T13:25:25;0.82;;;0.70;;
24901;SDS011;31328;51.402;0.016;2022-07-23T13:27:52;0.85;;;0.80;;
24901;SDS011;31328;51.402;0.016;2022-07-23T13:30:18;1.00;;;0.80;;
24901;SDS011;31328;51.402;0.016;2022-07-23T13:32:45;1.13;;;0.70;;
24901;SDS011;31328;51.402;0.016;2022-07-23T13:35:13;4.43;;;0.70;;
24901;SDS011;31328;51.402;0.016;2022-07-23T13:37:40;1.33;;;0.45;;
24901;SDS011;31328;51.402;0.016;2022-07-23T13:40:07;1.30;;;0.80;;
24901;SDS011;31328;51.402;0.016;2022-07-23T13:42:33;0.90;;;0.70;;
24901;SDS011;31328;51.402;0.016;2022-07-23T13:45:00;1.48;;;0.65;;
24901;SDS011;31328;51.402;0.016;2022-07-23T13:47:26;1.27;;;0.95;;
24901;SDS011;31328;51.402;0.016;2022-07-23T13:49:53;1.48;;;0.80;;
24901;SDS011;31328;51.402;0.016;2022-07-23T13:52:19;1.42;;;0.80;;
24901;SDS011;31328;51.402;0.016;2022-07-23T13:54:46;0.85;;;0.60;;
24901;SDS011;31328;51.402;0.016;2022-07-23T13:57:12;0.95;;;0.63;;
24901;SDS011;31328;51.402;0.016;2022-07-23T13:59:38;1.15;;;0.80;;
24901;SDS011;31328;51.402;0.016;2022-07-23T14:02:05;0.73;;;0.73;;
24901;SDS011;31328;51.402;0.016;2022-07-23T14:04:32;0.95;;;0.70;;
24901;SDS011;31328;51.402;0.016;2022-07-23T14:06:59;1.35;;;0.85;;
24901;SDS011;31328;51.402;0.016;2022-07-23T14:09:25;1.63;;;1.10;;
24901;SDS011;31328;51.402;0.016;2022-07-23T14:11:52;0.85;;;0.80;;
24901;SDS011;31328;51.402;0.016;2022-07-23T14:14:19;1.73;;;0.90;;
24901;SDS011;31328;51.402;0.016;2022-07-23T14:16:45;2.00;;;0.95;;
24901;SDS011;31328;51.402;0.016;2022-07-23T14:19:12;1.67;;;0.98;;
24901;SDS011;31328;51.402;0.016;2022-07-23T14:21:38;1.08;;;0.73;;
24901;SDS011;31328;51.402;0.016;2022-07-23T14:24:04;2.28;;;0.70;;
24901;SDS011;31328;51.402;0.016;2022-07-23T14:26:31;1.42;;;0.88;;
24901;SDS011;31328;51.402;0.016;2022-07-23T14:28:57;1.20;;;0.90;;
24901;SDS011;31328;51.402;0.016;2022-07-23T14:31:24;0.88;;;0.80;;
24901;SDS011;31328;51.402;0.016;2022-07-23T14:33:50;1.05;;;0.90;;
24901;SDS011;31328;51.402;0.016;2022-07-23T14:36:16;0.82;;;0.82;;
24901;SDS011;31328;51.402;0.016;2022-07-23T14:38:43;1.48;;;0.80;;
24901;SDS011;31328;51.402;0.016;2022-07-23T14:41:09;1.23;;;1.05;;
24901;SDS011;31328;51.402;0.016;2022-07-23T14:43:36;1.90;;;0.93;;
24901;SDS011;31328;51.402;0.016;2022-07-23T14:46:03;1.33;;;0.70;;
24901;SDS011;31328;51.402;0.016;2022-07-23T14:48:30;1.48;;;1.10;;
24901;SDS011;31328;51.402;0.016;2022-07-23T14:50:56;1.58;;;0.80;;
24901;SDS011;31328;51.402;0.016;2022-07-23T14:53:23;2.50;;;1.00;;
24901;SDS011;31328;51.402;0.016;2022-07-23T14:55:49;1.13;;;1.02;;
24901;SDS011;31328;51.402;0.016;2022-07-23T14:58:15;1.08;;;0.90;;
24901;SDS011;31328;51.402;0.016;2022-07-23T15:00:43;1.60;;;1.02;;
24901;SDS011;31328;51.402;0.016;2022-07-23T15:03:09;3.03;;;1.10;;
24901;SDS011;31328;51.402;0.016;2022-07-23T15:05:36;1.75;;;0.90;;
24901;SDS011;31328;51.402;0.016;2022-07-23T15:08:02;2.47;;;0.80;;
24901;SDS011;31328;51.402;0.016;2022-07-23T15:10:29;0.82;;;0.70;;
24901;SDS011;31328;51.402;0.016;2022-07-23T15:12:55;1.30;;;0.85;;
24901;SDS011;31328;51.402;0.016;2022-07-23T15:15:21;1.00;;;0.85;;
24901;SDS011;31328;51.402;0.016;2022-07-23T15:17:48;1.30;;;1.20;;
24901;SDS011;31328;51.402;0.016;2022-07-23T15:20:14;0.77;;;0.65;;
24901;SDS011;31328;51.402;0.016;2022-07-23T15:22:41;1.50;;;1.20;;
24901;SDS011;31328;51.402;0.016;2022-07-23T15:25:07;1.90;;;0.80;;
24901;SDS011;31328;51.402;0.016;2022-07-23T15:27:34;1.02;;;0.93;;
24901;SDS011;31328;51.402;0.016;2022-07-23T15:30:00;0.93;;;0.70;;
24901;SDS011;31328;51.402;0.016;2022-07-23T15:32:27;1.42;;;1.08;;
24901;SDS011;31328;51.402;0.016;2022-07-23T15:34:53;2.25;;;0.90;;
24901;SDS011;31328;51.402;0.016;2022-07-23T15:37:20;0.80;;;0.80;;
24901;SDS011;31328;51.402;0.016;2022-07-23T15:39:49;1.90;;;0.93;;
24901;SDS011;31328;51.402;0.016;2022-07-23T15:42:15;1.00;;;0.80;;
24901;SDS011;31328;51.402;0.016;2022-07-23T15:44:42;1.67;;;0.80;;
24901;SDS011;31328;51.402;0.016;2022-07-23T15:47:11;1.42;;;1.17;;
24901;SDS011;31328;51.402;0.016;2022-07-23T15:49:39;1.60;;;1.00;;